McAlpin, West Virginia
Current Conditions -  °F | °C
As of 8:51 PM on Saturday 25 Oct 2014 (Local Time) from KBKW Reporting Station
Clear Clear  
Wind Chill: 55°   Ceiling: Unl
Heat Index: 55°   Visibility: 10mi
Dew Point: 46°   Wind: 8mph
Humidity: 72%   Direction: 230°SW
Pressure: 29.95"   Gusts: NA
Location:  37.6919°N, 81.2784°W
Report Text: KBKW 260051Z AUTO 23007KT 10SM CLR 13/08 A2995 RMK AO2 SLP141 T01280078 TSNO
Loading
Personal Weather Stations






























Interactive Weather Map
Tropical Storm Tracking
New forecast layout! Learn more

10-Day Weather Forecast

Advertisements
Track Severe Weather on mobile